Sprucedale, Canada
Current Conditions -  °F | °C
As of 11:13 PM on Saturday 22 Nov 2014 (Local Time) from CYQA Reporting Station
Haze Haze  
Wind Chill: 30°   Ceiling: 600
Heat Index: 36°   Visibility: 1mi
Dew Point: 36°   Wind: 7mph
Humidity: 100%   Direction: 180°S
Pressure: 29.86"   Gusts: NA
Location:  45.48°N, 79.47°W
Report Text: CYQA 230413Z AUTO 18006KT 1SM BR OVC006 02/02 A2986 RMK SLP125
Loading
Personal Weather Stations






























Interactive Weather Map New forecast layout! Learn more

10-Day Weather Forecast

Advertisements
Track Severe Weather on mobile